createdAt,value
2022-12-27T00:03:35.404Z,8.30
2022-12-27T00:14:04.005Z,8.28
2022-12-27T00:24:30.037Z,8.32
2022-12-27T00:34:57.519Z,8.34
2022-12-27T00:45:25.185Z,8.33
2022-12-27T00:55:52.813Z,8.34
2022-12-27T01:06:23.123Z,8.38
2022-12-27T01:16:51.336Z,8.38
2022-12-27T01:27:19.573Z,8.32
2022-12-27T01:37:47.123Z,8.29
2022-12-27T01:48:19.725Z,8.35
2022-12-27T01:58:51.970Z,8.41
2022-12-27T02:09:26.842Z,8.46
2022-12-27T02:20:02.659Z,8.41
2022-12-27T02:30:32.859Z,8.35
2022-12-27T02:41:21.687Z,8.32
2022-12-27T02:52:21.597Z,8.19
2022-12-27T03:03:25.035Z,8.14
2022-12-27T03:14:16.334Z,8.15
2022-12-27T03:25:13.508Z,8.24
2022-12-27T03:36:04.918Z,8.46
2022-12-27T03:46:35.972Z,8.40
2022-12-27T03:57:07.222Z,8.19
2022-12-27T04:07:34.773Z,7.93
2022-12-27T04:18:19.687Z,7.40
2022-12-27T04:29:04.757Z,6.92
2022-12-27T04:39:33.420Z,6.64
2022-12-27T04:50:18.914Z,6.45
2022-12-27T05:01:06.698Z,6.25
2022-12-27T05:11:56.074Z,6.06
2022-12-27T05:22:41.231Z,5.93
2022-12-27T05:33:09.644Z,5.75
2022-12-27T05:43:38.565Z,5.58
2022-12-27T05:54:06.503Z,5.44
2022-12-27T06:04:34.125Z,5.35
2022-12-27T06:15:01.686Z,5.39
2022-12-27T06:25:29.225Z,5.38
2022-12-27T06:35:56.965Z,5.21
2022-12-27T06:46:25.493Z,5.13
2022-12-27T06:56:53.207Z,5.06
2022-12-27T07:07:20.713Z,4.98
2022-12-27T07:17:48.227Z,4.86
2022-12-27T07:28:16.004Z,4.83
2022-12-27T07:38:43.898Z,4.84
2022-12-27T07:49:17.655Z,4.92
2022-12-27T07:59:45.502Z,5.09
2022-12-27T08:10:13.882Z,5.27
2022-12-27T08:20:41.587Z,5.15
2022-12-27T08:31:12.445Z,5.03
2022-12-27T08:41:40.170Z,4.98
2022-12-27T08:52:08.230Z,4.95
2022-12-27T09:02:35.730Z,4.95
2022-12-27T09:13:03.729Z,5.07
2022-12-27T09:23:32.442Z,5.10
2022-12-27T09:34:00.552Z,5.16
2022-12-27T09:44:37.529Z,5.31
2022-12-27T09:55:13.236Z,5.41
2022-12-27T10:05:45.240Z,5.56
2022-12-27T10:16:24.336Z,5.67
2022-12-27T10:26:53.499Z,5.76
2022-12-27T10:37:21.072Z,5.87
2022-12-27T10:47:48.711Z,5.98
2022-12-27T10:58:38.366Z,6.07
2022-12-27T11:09:25.795Z,6.13
2022-12-27T11:19:54.177Z,6.27
2022-12-27T11:30:28.435Z,6.35
2022-12-27T11:41:03.442Z,6.48
2022-12-27T11:51:52.192Z,6.46
2022-12-27T12:02:39.902Z,6.33
2022-12-27T12:13:20.019Z,6.42
2022-12-27T12:24:03.766Z,6.47
2022-12-27T12:34:47.181Z,6.44
2022-12-27T12:45:25.391Z,6.41
2022-12-27T12:56:07.039Z,6.21
2022-12-27T13:07:02.137Z,6.13
2022-12-27T13:17:37.316Z,6.10
2022-12-27T13:28:26.767Z,6.13
2022-12-27T13:39:18.555Z,6.08
2022-12-27T13:50:13.755Z,6.16
2022-12-27T14:00:49.542Z,6.23
2022-12-27T14:11:33.643Z,6.12
2022-12-27T14:22:23.228Z,6.05
2022-12-27T14:33:35.343Z,5.96
2022-12-27T14:44:35.303Z,5.91
2022-12-27T14:55:29.713Z,5.80
2022-12-27T15:06:12.197Z,5.68
2022-12-27T15:16:50.659Z,5.60
2022-12-27T15:27:27.827Z,5.49
2022-12-27T15:38:04.314Z,5.31
2022-12-27T15:49:02.749Z,5.10
2022-12-27T15:59:46.868Z,5.02
2022-12-27T16:10:48.829Z,5.02
2022-12-27T16:21:21.084Z,4.99
2022-12-27T16:31:51.949Z,4.89
2022-12-27T16:42:28.220Z,4.83
2022-12-27T16:53:10.092Z,4.92
2022-12-27T17:03:51.242Z,4.91
2022-12-27T17:14:25.427Z,4.90
2022-12-27T17:25:00.154Z,4.90
2022-12-27T17:35:34.239Z,4.82
2022-12-27T17:46:18.932Z,4.73
2022-12-27T17:57:05.764Z,4.68
2022-12-27T18:07:36.099Z,4.57
2022-12-27T18:18:06.136Z,4.47
2022-12-27T18:28:35.648Z,4.38
2022-12-27T18:39:06.398Z,4.34
2022-12-27T18:49:36.321Z,4.53
2022-12-27T19:00:14.556Z,4.91
2022-12-27T19:10:50.014Z,4.99
2022-12-27T19:21:19.026Z,4.85
2022-12-27T19:31:54.519Z,4.67
2022-12-27T19:42:29.716Z,4.73
2022-12-27T19:52:57.387Z,5.11
2022-12-27T20:03:25.609Z,5.38
2022-12-27T20:13:53.199Z,5.46
2022-12-27T20:24:20.824Z,5.47
2022-12-27T20:34:48.539Z,5.46
2022-12-27T20:45:16.223Z,5.56
2022-12-27T20:55:44.275Z,5.66
2022-12-27T21:06:14.456Z,5.54
2022-12-27T21:16:42.156Z,5.48
2022-12-27T21:27:09.650Z,5.64
2022-12-27T21:37:37.253Z,5.73
2022-12-27T21:48:04.818Z,5.74
2022-12-27T21:58:34.705Z,5.46
2022-12-27T22:09:03.922Z,4.61
2022-12-27T22:19:31.551Z,4.28
2022-12-27T22:29:59.118Z,4.17
2022-12-27T22:40:40.945Z,4.13
2022-12-27T22:51:17.728Z,4.29
2022-12-27T23:01:46.334Z,4.28
2022-12-27T23:12:12.765Z,4.17
2022-12-27T23:22:40.543Z,4.10
2022-12-27T23:33:08.790Z,4.19
2022-12-27T23:43:55.695Z,3.97
2022-12-27T23:54:23.753Z,3.75
